Time;durP1;ratioP1;P1;durP2;ratioP2;P2;SDS_P1;SDS_P2;PMS_P1;PMS_P2;Temp;Humidity;BMP_temperature;BMP_pressure;BME280_temperature;BME280_humidity;BME280_pressure;Samples;Min_cycle;Max_cycle;Signal;HPM_P1;HPM_P2
2022/02/19 00:00:42;;;;;;;;;;;21.70;30.00;;;;;;481996;247;1237;-73
2022/02/19 00:02:43;;;;;;;;;;;21.60;30.00;;;;;;481884;246;1449;-73
2022/02/19 00:04:44;;;;;;;;;;;21.60;30.00;;;;;;482102;246;1262;-73
2022/02/19 00:06:45;;;;;;;;;;;21.60;30.00;;;;;;481833;247;2133;-73
2022/02/19 00:08:47;;;;;;;;;;;21.60;30.00;;;;;;482082;246;1068;-73
2022/02/19 00:10:48;;;;;;;;;;;21.60;30.00;;;;;;481974;246;1216;-73
2022/02/19 00:12:49;;;;;;;;;;;21.60;30.00;;;;;;481827;247;1325;-73
2022/02/19 00:14:52;;;;;;;;;;;21.50;30.00;;;;;;481915;247;1042;-73
2022/02/19 00:16:52;;;;;;;;;;;21.50;30.00;;;;;;481889;246;1364;-73
2022/02/19 00:18:54;;;;;;;;;;;21.40;30.00;;;;;;482113;246;1057;-73
2022/02/19 00:20:56;;;;;;;;;;;21.50;30.00;;;;;;481900;247;1357;-73
2022/02/19 00:22:56;;;;;;;;;;;21.50;30.00;;;;;;482002;246;1335;-73
2022/02/19 00:24:58;;;;;;;;;;;21.50;30.00;;;;;;482197;246;1070;-73
2022/02/19 00:26:59;;;;;;;;;;;21.40;30.10;;;;;;482062;246;2203;-74
2022/02/19 00:29:00;;;;;;;;;;;21.40;30.10;;;;;;482330;246;966;-73
2022/02/19 00:31:01;;;;;;;;;;;21.40;30.10;;;;;;490754;242;1550;-73
2022/02/19 00:33:03;;;;;;;;;;;21.40;30.00;;;;;;473756;251;1129;-73
2022/02/19 00:35:04;;;;;;;;;;;21.30;30.00;;;;;;481950;247;1075;-73
2022/02/19 00:37:06;;;;;;;;;;;21.40;30.00;;;;;;481906;247;1280;-73
2022/02/19 00:39:07;;;;;;;;;;;21.40;30.00;;;;;;481888;247;1315;-73
2022/02/19 00:41:08;;;;;;;;;;;21.30;30.00;;;;;;482132;246;1206;-73
2022/02/19 00:43:09;;;;;;;;;;;21.30;30.00;;;;;;481983;247;1143;-73
2022/02/19 00:45:11;;;;;;;;;;;21.40;30.00;;;;;;481961;247;1054;-73
2022/02/19 00:47:12;;;;;;;;;;;21.40;29.90;;;;;;481857;247;2392;-73
2022/02/19 00:49:13;;;;;;;;;;;21.40;29.80;;;;;;481937;246;1149;-73
2022/02/19 00:51:15;;;;;;;;;;;21.40;29.80;;;;;;481849;246;1201;-73
2022/02/19 00:53:16;;;;;;;;;;;21.30;29.80;;;;;;482108;246;1131;-73
2022/02/19 00:55:18;;;;;;;;;;;21.40;29.70;;;;;;482024;246;1046;-73
2022/02/19 00:57:19;;;;;;;;;;;21.30;29.70;;;;;;482053;246;2021;-73
2022/02/19 00:59:20;;;;;;;;;;;21.40;29.70;;;;;;481992;246;1053;-73
2022/02/19 01:01:23;;;;;;;;;;;21.40;29.60;;;;;;481787;247;1125;-73
2022/02/19 01:03:24;;;;;;;;;;;21.40;29.50;;;;;;473863;251;1432;-73
2022/02/19 01:05:25;;;;;;;;;;;21.50;29.40;;;;;;481965;247;950;-73
2022/02/19 01:07:26;;;;;;;;;;;21.40;29.40;;;;;;481897;246;2188;-73
2022/02/19 01:09:28;;;;;;;;;;;21.40;29.40;;;;;;481951;247;985;-73
2022/02/19 01:11:29;;;;;;;;;;;21.40;29.30;;;;;;481877;246;1171;-73
2022/02/19 01:13:30;;;;;;;;;;;21.40;29.40;;;;;;482036;247;1041;-73
2022/02/19 01:15:32;;;;;;;;;;;21.30;29.40;;;;;;481962;247;1476;-73
2022/02/19 01:17:33;;;;;;;;;;;21.40;29.40;;;;;;481952;247;1220;-73
2022/02/19 01:19:34;;;;;;;;;;;21.50;29.20;;;;;;482015;247;1208;-73
2022/02/19 01:21:35;;;;;;;;;;;21.60;29.20;;;;;;482073;246;1215;-73
2022/02/19 01:23:37;;;;;;;;;;;21.60;29.00;;;;;;482095;247;1201;-73
2022/02/19 01:25:38;;;;;;;;;;;21.80;28.90;;;;;;481974;246;1154;-73
2022/02/19 01:27:39;;;;;;;;;;;22.00;28.70;;;;;;481874;247;2121;-73
2022/02/19 01:29:41;;;;;;;;;;;22.10;28.60;;;;;;481934;246;1048;-73
2022/02/19 01:31:42;;;;;;;;;;;22.10;28.50;;;;;;481910;246;1200;-73
2022/02/19 01:33:43;;;;;;;;;;;22.20;28.50;;;;;;481839;247;1124;-73
2022/02/19 01:35:45;;;;;;;;;;;22.20;28.50;;;;;;481995;246;1159;-73
2022/02/19 01:37:46;;;;;;;;;;;22.20;28.50;;;;;;481906;247;1083;-73
2022/02/19 01:39:47;;;;;;;;;;;22.20;28.40;;;;;;482100;246;1045;-73
2022/02/19 01:41:49;;;;;;;;;;;22.20;28.50;;;;;;481921;247;1353;-73
2022/02/19 01:43:50;;;;;;;;;;;22.10;28.50;;;;;;482008;246;1250;-73
2022/02/19 01:45:51;;;;;;;;;;;22.00;28.50;;;;;;481979;247;2173;-73
2022/02/19 01:47:53;;;;;;;;;;;21.90;28.50;;;;;;481955;246;1325;-73
2022/02/19 01:49:54;;;;;;;;;;;21.90;28.50;;;;;;482013;246;1163;-73
2022/02/19 01:51:55;;;;;;;;;;;21.80;28.60;;;;;;481971;247;1216;-73
2022/02/19 01:53:57;;;;;;;;;;;21.60;28.70;;;;;;481973;247;1107;-73
2022/02/19 01:55:58;;;;;;;;;;;21.60;28.70;;;;;;481996;246;1187;-73
2022/02/19 01:58:01;;;;;;;;;;;21.50;28.70;;;;;;481930;247;1019;-73
2022/02/19 02:00:01;;;;;;;;;;;21.50;28.70;;;;;;481868;246;1385;-73
2022/02/19 02:02:02;;;;;;;;;;;21.40;28.70;;;;;;481905;246;1117;-73
2022/02/19 02:04:03;;;;;;;;;;;21.40;28.60;;;;;;481888;246;1179;-73
2022/02/19 02:06:05;;;;;;;;;;;21.40;28.70;;;;;;481874;247;2126;-73
2022/02/19 02:08:06;;;;;;;;;;;21.30;28.70;;;;;;481914;247;1093;-73
2022/02/19 02:10:07;;;;;;;;;;;21.40;28.60;;;;;;482036;246;1084;-73
2022/02/19 02:12:09;;;;;;;;;;;21.40;28.60;;;;;;482023;246;1144;-73
2022/02/19 02:14:10;;;;;;;;;;;21.30;28.60;;;;;;482077;246;1006;-73
2022/02/19 02:16:11;;;;;;;;;;;21.40;28.60;;;;;;481936;247;1329;-73
2022/02/19 02:18:13;;;;;;;;;;;21.40;28.50;;;;;;481923;246;1156;-73
2022/02/19 02:20:14;;;;;;;;;;;21.30;28.40;;;;;;481973;247;1123;-73
2022/02/19 02:22:16;;;;;;;;;;;21.40;28.50;;;;;;481856;246;1172;-73
2022/02/19 02:24:16;;;;;;;;;;;21.30;28.40;;;;;;482122;246;1441;-73
2022/02/19 02:26:18;;;;;;;;;;;21.40;28.40;;;;;;481949;246;2133;-73
2022/02/19 02:28:19;;;;;;;;;;;21.30;28.50;;;;;;481977;247;1183;-73
2022/02/19 02:30:20;;;;;;;;;;;21.30;28.40;;;;;;481956;246;975;-73
2022/02/19 02:32:22;;;;;;;;;;;21.40;28.40;;;;;;481835;247;1299;-73
2022/02/19 02:34:23;;;;;;;;;;;21.40;28.40;;;;;;481933;247;1154;-73
2022/02/19 02:36:24;;;;;;;;;;;21.30;28.40;;;;;;481886;247;1152;-73
2022/02/19 02:38:26;;;;;;;;;;;21.30;28.40;;;;;;481916;247;1073;-73
2022/02/19 02:40:27;;;;;;;;;;;21.30;28.50;;;;;;481923;246;1100;-73
2022/02/19 02:42:28;;;;;;;;;;;21.30;28.50;;;;;;481902;247;1174;-73
2022/02/19 02:44:30;;;;;;;;;;;21.20;28.50;;;;;;482257;246;976;-74
2022/02/19 02:46:31;;;;;;;;;;;21.20;28.50;;;;;;481911;247;2150;-73
2022/02/19 02:48:32;;;;;;;;;;;21.20;28.50;;;;;;481978;246;1066;-73
2022/02/19 02:50:34;;;;;;;;;;;21.30;28.60;;;;;;482072;247;1141;-73
2022/02/19 02:52:35;;;;;;;;;;;21.30;28.60;;;;;;482002;246;1172;-73
2022/02/19 02:54:36;;;;;;;;;;;21.30;28.50;;;;;;481955;246;999;-73
2022/02/19 02:56:38;;;;;;;;;;;21.30;28.50;;;;;;482102;246;1028;-74
2022/02/19 02:58:39;;;;;;;;;;;21.30;28.50;;;;;;481995;246;1097;-73
2022/02/19 03:00:40;;;;;;;;;;;21.30;28.60;;;;;;481937;246;1036;-73
2022/02/19 03:02:42;;;;;;;;;;;21.40;28.60;;;;;;481873;247;1181;-73
2022/02/19 03:04:43;;;;;;;;;;;21.30;28.50;;;;;;481992;247;1104;-73
2022/02/19 03:06:44;;;;;;;;;;;21.40;28.60;;;;;;481874;247;2212;-73
2022/02/19 03:08:46;;;;;;;;;;;21.30;28.60;;;;;;481889;247;1124;-73
2022/02/19 03:10:47;;;;;;;;;;;21.40;28.60;;;;;;481896;246;1212;-73
2022/02/19 03:12:48;;;;;;;;;;;21.40;28.60;;;;;;482006;247;1558;-73
2022/02/19 03:14:49;;;;;;;;;;;21.30;28.60;;;;;;481937;247;1079;-73
2022/02/19 03:16:51;;;;;;;;;;;21.40;28.70;;;;;;481850;246;1117;-73
2022/02/19 03:18:52;;;;;;;;;;;21.40;28.70;;;;;;481990;247;1090;-73
2022/02/19 03:20:53;;;;;;;;;;;21.30;28.70;;;;;;482010;246;1136;-73
2022/02/19 03:22:55;;;;;;;;;;;21.30;28.70;;;;;;482013;246;1079;-73
2022/02/19 03:24:56;;;;;;;;;;;21.30;28.70;;;;;;481961;247;1053;-73
2022/02/19 03:26:58;;;;;;;;;;;21.40;28.70;;;;;;481964;246;2253;-73
2022/02/19 03:28:59;;;;;;;;;;;21.40;28.70;;;;;;473911;251;1089;-73
2022/02/19 03:31:00;;;;;;;;;;;21.30;28.80;;;;;;482198;246;1298;-73
2022/02/19 03:33:02;;;;;;;;;;;21.30;28.80;;;;;;481924;247;1032;-74
2022/02/19 03:35:03;;;;;;;;;;;21.40;28.80;;;;;;481936;247;1156;-73
2022/02/19 03:37:05;;;;;;;;;;;21.40;28.80;;;;;;482000;246;1130;-73
2022/02/19 03:39:06;;;;;;;;;;;21.30;28.90;;;;;;482017;247;1180;-73
2022/02/19 03:41:07;;;;;;;;;;;21.40;28.90;;;;;;482012;246;1123;-73
2022/02/19 03:43:08;;;;;;;;;;;21.40;28.90;;;;;;481966;246;1232;-73
2022/02/19 03:45:10;;;;;;;;;;;21.40;29.00;;;;;;481933;247;1071;-73
2022/02/19 03:47:11;;;;;;;;;;;21.50;29.00;;;;;;481823;247;2209;-73
2022/02/19 03:49:12;;;;;;;;;;;21.50;28.90;;;;;;481976;246;1064;-73
2022/02/19 03:51:14;;;;;;;;;;;21.60;28.90;;;;;;481892;247;1530;-73
2022/02/19 03:53:15;;;;;;;;;;;21.70;28.80;;;;;;482040;246;1100;-73
2022/02/19 03:55:18;;;;;;;;;;;21.80;28.70;;;;;;482127;246;1044;-73
2022/02/19 03:57:18;;;;;;;;;;;21.90;28.70;;;;;;482001;246;1324;-73
2022/02/19 03:59:19;;;;;;;;;;;22.10;28.60;;;;;;482108;246;1061;-73
2022/02/19 04:01:21;;;;;;;;;;;22.10;28.40;;;;;;482186;246;1117;-74
2022/02/19 04:03:22;;;;;;;;;;;22.20;28.40;;;;;;482115;246;1156;-73
2022/02/19 04:05:23;;;;;;;;;;;22.20;28.30;;;;;;481962;247;1272;-73
2022/02/19 04:07:24;;;;;;;;;;;22.20;28.20;;;;;;482083;246;2212;-73
2022/02/19 04:09:26;;;;;;;;;;;22.20;28.30;;;;;;481973;247;996;-73
2022/02/19 04:11:27;;;;;;;;;;;22.20;28.30;;;;;;481964;246;1385;-73
2022/02/19 04:13:28;;;;;;;;;;;22.10;28.30;;;;;;481959;247;1088;-73
2022/02/19 04:15:30;;;;;;;;;;;22.00;28.30;;;;;;473939;251;1216;-73
2022/02/19 04:17:31;;;;;;;;;;;21.90;28.40;;;;;;481873;247;1070;-73
2022/02/19 04:19:32;;;;;;;;;;;21.80;28.50;;;;;;482005;246;1144;-73
2022/02/19 04:21:34;;;;;;;;;;;21.70;28.60;;;;;;482018;247;1464;-73
2022/02/19 04:23:35;;;;;;;;;;;21.50;28.60;;;;;;482088;246;1078;-73
2022/02/19 04:25:36;;;;;;;;;;;21.50;28.70;;;;;;482046;247;1250;-73
2022/02/19 04:27:38;;;;;;;;;;;21.40;28.80;;;;;;482026;246;2170;-73
2022/02/19 04:29:39;;;;;;;;;;;21.40;28.90;;;;;;481975;246;975;-73
2022/02/19 04:31:40;;;;;;;;;;;21.40;28.90;;;;;;481867;247;1210;-73
2022/02/19 04:33:42;;;;;;;;;;;21.30;28.90;;;;;;481993;246;1521;-73
2022/02/19 04:35:45;;;;;;;;;;;21.30;29.00;;;;;;481817;247;1237;-73
2022/02/19 04:37:44;;;;;;;;;;;21.30;29.00;;;;;;481750;247;1355;-73
2022/02/19 04:39:46;;;;;;;;;;;21.30;29.10;;;;;;482052;246;1083;-73
2022/02/19 04:41:47;;;;;;;;;;;21.20;29.10;;;;;;481872;247;1128;-73
2022/02/19 04:43:48;;;;;;;;;;;21.30;29.10;;;;;;482041;246;1440;-73
2022/02/19 04:45:50;;;;;;;;;;;21.30;29.00;;;;;;481939;246;1220;-73
2022/02/19 04:47:51;;;;;;;;;;;21.30;29.10;;;;;;481884;246;2133;-73
2022/02/19 04:49:52;;;;;;;;;;;21.30;29.20;;;;;;482008;247;1320;-73
2022/02/19 04:51:54;;;;;;;;;;;21.30;29.20;;;;;;482064;246;1232;-73
2022/02/19 04:53:55;;;;;;;;;;;21.30;29.20;;;;;;481911;247;1123;-73
2022/02/19 04:55:56;;;;;;;;;;;21.30;29.10;;;;;;481798;247;1163;-73
2022/02/19 04:57:58;;;;;;;;;;;21.30;29.20;;;;;;482053;246;1120;-73
2022/02/19 04:59:59;;;;;;;;;;;21.30;29.20;;;;;;482039;246;1107;-73
2022/02/19 05:02:00;;;;;;;;;;;21.40;29.20;;;;;;481901;246;1198;-73
2022/02/19 05:04:01;;;;;;;;;;;21.50;29.10;;;;;;481943;246;1039;-73
2022/02/19 05:06:03;;;;;;;;;;;21.50;29.10;;;;;;481825;247;1190;-73
2022/02/19 05:08:04;;;;;;;;;;;21.60;29.00;;;;;;481837;247;2189;-73
2022/02/19 05:10:06;;;;;;;;;;;21.60;29.00;;;;;;481975;247;935;-73
2022/02/19 05:12:07;;;;;;;;;;;21.60;29.00;;;;;;481910;247;1186;-73
2022/02/19 05:14:08;;;;;;;;;;;21.60;29.00;;;;;;482058;246;1042;-73
2022/02/19 05:16:09;;;;;;;;;;;21.60;28.90;;;;;;481907;247;1278;-73
2022/02/19 05:18:11;;;;;;;;;;;21.80;28.90;;;;;;481972;246;1029;-73
2022/02/19 05:20:12;;;;;;;;;;;21.70;28.90;;;;;;481957;247;971;-74
2022/02/19 05:22:13;;;;;;;;;;;21.70;28.90;;;;;;481891;246;1162;-73
2022/02/19 05:24:15;;;;;;;;;;;21.70;29.00;;;;;;481982;247;1126;-73
2022/02/19 05:26:16;;;;;;;;;;;21.70;29.00;;;;;;481905;247;1337;-73
2022/02/19 05:28:17;;;;;;;;;;;21.60;29.10;;;;;;482211;246;2125;-73
2022/02/19 05:30:19;;;;;;;;;;;21.50;29.20;;;;;;481951;247;1046;-73
2022/02/19 05:32:20;;;;;;;;;;;21.50;29.20;;;;;;481964;246;1060;-73
2022/02/19 05:34:21;;;;;;;;;;;21.50;29.20;;;;;;481950;247;1121;-73
2022/02/19 05:36:23;;;;;;;;;;;21.50;29.20;;;;;;481974;246;1714;-73
2022/02/19 05:38:25;;;;;;;;;;;21.40;29.30;;;;;;481920;247;983;-73
2022/02/19 05:40:25;;;;;;;;;;;21.40;29.30;;;;;;481917;247;1472;-73
2022/02/19 05:42:27;;;;;;;;;;;21.40;29.30;;;;;;481956;247;1087;-73
2022/02/19 05:44:28;;;;;;;;;;;21.40;29.30;;;;;;482011;247;1184;-74
2022/02/19 05:46:29;;;;;;;;;;;21.40;29.40;;;;;;481932;246;1288;-73
2022/02/19 05:48:31;;;;;;;;;;;21.40;29.40;;;;;;481865;247;2134;-73
2022/02/19 05:50:32;;;;;;;;;;;21.40;29.30;;;;;;481880;246;1113;-73
2022/02/19 05:52:33;;;;;;;;;;;21.40;29.30;;;;;;482005;246;1062;-73
2022/02/19 05:54:35;;;;;;;;;;;21.40;29.30;;;;;;481969;247;1109;-73
2022/02/19 05:56:36;;;;;;;;;;;21.50;29.20;;;;;;481864;247;1500;-73
2022/02/19 05:58:37;;;;;;;;;;;21.40;29.20;;;;;;481964;247;1110;-73
2022/02/19 06:00:39;;;;;;;;;;;21.40;29.20;;;;;;481938;246;1368;-73
2022/02/19 06:02:40;;;;;;;;;;;21.40;29.20;;;;;;481908;247;1162;-73
2022/02/19 06:04:41;;;;;;;;;;;21.50;29.20;;;;;;481871;247;1121;-73
2022/02/19 06:06:43;;;;;;;;;;;21.40;29.30;;;;;;481788;246;1572;-73
2022/02/19 06:08:44;;;;;;;;;;;21.30;29.30;;;;;;481878;247;2122;-73
2022/02/19 06:10:45;;;;;;;;;;;21.30;29.30;;;;;;481924;247;1526;-73
2022/02/19 06:12:46;;;;;;;;;;;21.40;29.40;;;;;;481891;247;1143;-73
2022/02/19 06:14:48;;;;;;;;;;;21.30;29.30;;;;;;482102;246;1378;-73
2022/02/19 06:16:49;;;;;;;;;;;21.30;29.30;;;;;;481955;246;1215;-73
2022/02/19 06:18:51;;;;;;;;;;;21.30;29.30;;;;;;482076;246;1101;-73
2022/02/19 06:20:52;;;;;;;;;;;21.30;29.30;;;;;;482084;246;1259;-73
2022/02/19 06:22:53;;;;;;;;;;;21.30;29.30;;;;;;481940;247;1192;-73
2022/02/19 06:24:55;;;;;;;;;;;21.30;29.30;;;;;;481950;247;1086;-73
2022/02/19 06:26:56;;;;;;;;;;;21.30;29.30;;;;;;481869;246;1321;-73
2022/02/19 06:28:57;;;;;;;;;;;21.40;29.30;;;;;;482024;246;2130;-73
2022/02/19 06:30:59;;;;;;;;;;;21.40;29.30;;;;;;482144;246;1113;-73
2022/02/19 06:33:01;;;;;;;;;;;21.40;29.30;;;;;;482150;246;1199;-73
2022/02/19 06:35:02;;;;;;;;;;;21.40;29.30;;;;;;481961;246;1090;-73
2022/02/19 06:37:03;;;;;;;;;;;21.20;29.20;;;;;;481993;246;1323;-73
2022/02/19 06:39:06;;;;;;;;;;;21.30;29.30;;;;;;481952;247;999;-73
2022/02/19 06:41:06;;;;;;;;;;;21.30;29.30;;;;;;481897;247;1456;-73
2022/02/19 06:43:07;;;;;;;;;;;21.30;29.30;;;;;;481988;247;1143;-73
2022/02/19 06:45:08;;;;;;;;;;;21.30;29.30;;;;;;482147;246;1008;-73
2022/02/19 06:47:10;;;;;;;;;;;21.20;29.20;;;;;;481798;247;1132;-73
2022/02/19 06:49:11;;;;;;;;;;;21.30;29.30;;;;;;481984;246;2141;-73
2022/02/19 06:51:13;;;;;;;;;;;21.20;29.30;;;;;;481868;247;1224;-73
2022/02/19 06:53:14;;;;;;;;;;;21.20;29.30;;;;;;482013;247;1203;-73
2022/02/19 06:55:15;;;;;;;;;;;21.30;29.30;;;;;;482024;246;1027;-73
2022/02/19 06:57:17;;;;;;;;;;;21.40;29.20;;;;;;481962;247;1248;-73
2022/02/19 06:59:18;;;;;;;;;;;21.30;29.30;;;;;;482136;246;1125;-73
2022/02/19 07:01:20;;;;;;;;;;;21.30;29.20;;;;;;481905;247;1231;-73
2022/02/19 07:03:21;;;;;;;;;;;21.30;29.20;;;;;;482089;246;1069;-73
2022/02/19 07:05:22;;;;;;;;;;;21.30;29.30;;;;;;482026;246;1184;-73
2022/02/19 07:07:23;;;;;;;;;;;21.20;29.30;;;;;;481933;247;1126;-73
2022/02/19 07:09:25;;;;;;;;;;;21.20;29.30;;;;;;482048;246;2107;-73
2022/02/19 07:11:26;;;;;;;;;;;21.10;29.30;;;;;;481952;247;1133;-73
2022/02/19 07:13:27;;;;;;;;;;;21.20;29.30;;;;;;481970;246;958;-73
2022/02/19 07:15:29;;;;;;;;;;;21.10;29.30;;;;;;481953;247;1143;-73
2022/02/19 07:17:30;;;;;;;;;;;21.20;29.30;;;;;;481971;247;1080;-73
2022/02/19 07:19:31;;;;;;;;;;;21.20;29.20;;;;;;481984;247;1052;-73
2022/02/19 07:21:33;;;;;;;;;;;21.20;29.20;;;;;;481862;246;1164;-73
2022/02/19 07:23:34;;;;;;;;;;;21.20;29.20;;;;;;481953;247;1165;-73
2022/02/19 07:25:35;;;;;;;;;;;21.20;29.20;;;;;;482115;246;1432;-73
2022/02/19 07:27:37;;;;;;;;;;;21.20;29.30;;;;;;481905;246;2204;-73
2022/02/19 07:29:38;;;;;;;;;;;21.20;29.30;;;;;;481965;247;1150;-73
2022/02/19 07:31:39;;;;;;;;;;;21.10;29.20;;;;;;481922;246;1189;-73
2022/02/19 07:33:41;;;;;;;;;;;21.10;29.20;;;;;;481959;246;1030;-74
2022/02/19 07:35:42;;;;;;;;;;;21.10;29.30;;;;;;481933;247;1510;-73
2022/02/19 07:37:44;;;;;;;;;;;21.10;29.30;;;;;;481973;246;1139;-73
2022/02/19 07:39:45;;;;;;;;;;;21.10;29.30;;;;;;482048;246;1033;-73
2022/02/19 07:41:48;;;;;;;;;;;21.10;29.20;;;;;;481968;246;1319;-73
2022/02/19 07:43:47;;;;;;;;;;;21.10;29.20;;;;;;482117;247;1424;-73
2022/02/19 07:45:49;;;;;;;;;;;21.10;29.20;;;;;;482001;246;1279;-73
2022/02/19 07:47:50;;;;;;;;;;;21.20;29.10;;;;;;481930;247;2215;-73
2022/02/19 07:59:08;;;;;;;;;;;21.10;29.10;;;;;;490745;243;1033;-73
2022/02/19 08:01:10;;;;;;;;;;;21.10;29.10;;;;;;473782;251;1258;-73
2022/02/19 08:03:11;;;;;;;;;;;21.10;29.10;;;;;;481981;246;1126;-73
2022/02/19 08:05:12;;;;;;;;;;;21.00;29.20;;;;;;481959;247;1045;-73
2022/02/19 08:07:14;;;;;;;;;;;21.00;29.10;;;;;;482018;246;1163;-73
2022/02/19 08:09:15;;;;;;;;;;;21.10;29.10;;;;;;482067;246;2158;-73
2022/02/19 08:11:16;;;;;;;;;;;21.10;29.10;;;;;;481826;247;1198;-73
2022/02/19 08:13:18;;;;;;;;;;;21.00;29.10;;;;;;482077;246;1048;-73
2022/02/19 08:15:19;;;;;;;;;;;21.10;29.10;;;;;;481975;247;974;-73
2022/02/19 08:17:20;;;;;;;;;;;21.10;29.10;;;;;;481996;246;1140;-73
2022/02/19 08:19:21;;;;;;;;;;;21.10;29.10;;;;;;481967;247;1047;-73
2022/02/19 08:21:23;;;;;;;;;;;21.00;29.00;;;;;;481904;247;1228;-73
2022/02/19 08:23:24;;;;;;;;;;;21.00;29.00;;;;;;482022;246;1277;-73
2022/02/19 08:25:25;;;;;;;;;;;21.10;28.90;;;;;;482133;246;1064;-73
2022/02/19 08:27:27;;;;;;;;;;;21.10;28.90;;;;;;481965;246;1341;-73
2022/02/19 08:29:28;;;;;;;;;;;21.10;29.00;;;;;;481933;247;2196;-73
2022/02/19 08:31:29;;;;;;;;;;;21.00;28.90;;;;;;482025;246;1250;-73
2022/02/19 08:33:31;;;;;;;;;;;21.10;28.90;;;;;;482046;246;1029;-73
2022/02/19 08:35:32;;;;;;;;;;;21.10;28.90;;;;;;481933;247;1216;-73
2022/02/19 08:37:33;;;;;;;;;;;21.10;28.80;;;;;;481968;247;1156;-73
2022/02/19 08:39:35;;;;;;;;;;;21.20;28.80;;;;;;482096;246;1181;-73
2022/02/19 08:41:36;;;;;;;;;;;21.10;28.70;;;;;;481893;247;1197;-73
2022/02/19 08:43:37;;;;;;;;;;;21.10;28.70;;;;;;482099;246;1083;-73
2022/02/19 08:45:39;;;;;;;;;;;21.10;28.80;;;;;;481994;247;1235;-73
2022/02/19 08:47:40;;;;;;;;;;;21.10;28.80;;;;;;482064;246;1084;-73
2022/02/19 08:49:42;;;;;;;;;;;21.10;28.80;;;;;;481924;247;2125;-73
2022/02/19 08:51:43;;;;;;;;;;;21.00;28.80;;;;;;481958;246;1172;-73
2022/02/19 08:53:44;;;;;;;;;;;21.00;28.80;;;;;;481985;247;1198;-73
2022/02/19 08:55:46;;;;;;;;;;;21.10;28.70;;;;;;482117;246;1331;-73
2022/02/19 08:57:47;;;;;;;;;;;21.10;28.60;;;;;;481890;247;1343;-73
2022/02/19 08:59:48;;;;;;;;;;;21.20;28.50;;;;;;481998;247;1314;-73
2022/02/19 09:01:50;;;;;;;;;;;21.30;28.40;;;;;;481987;246;1319;-73
2022/02/19 09:03:51;;;;;;;;;;;21.40;28.30;;;;;;481959;247;1146;-73
2022/02/19 09:05:52;;;;;;;;;;;21.40;28.20;;;;;;481852;247;1062;-73
2022/02/19 09:07:54;;;;;;;;;;;21.60;28.10;;;;;;481967;247;1085;-73
2022/02/19 09:09:55;;;;;;;;;;;21.60;28.00;;;;;;482038;247;2192;-73
2022/02/19 09:11:56;;;;;;;;;;;21.70;28.00;;;;;;482088;246;1294;-73
2022/02/19 09:13:58;;;;;;;;;;;21.70;27.90;;;;;;481942;247;1055;-73
2022/02/19 09:15:59;;;;;;;;;;;21.70;27.90;;;;;;481993;247;1469;-73
2022/02/19 09:18:01;;;;;;;;;;;21.70;27.80;;;;;;481918;246;1226;-73
2022/02/19 09:20:02;;;;;;;;;;;21.70;27.80;;;;;;481958;246;979;-73
2022/02/19 09:22:03;;;;;;;;;;;21.70;27.70;;;;;;481864;247;1186;-73
2022/02/19 09:24:04;;;;;;;;;;;21.60;27.70;;;;;;482211;246;1456;-73
2022/02/19 09:26:06;;;;;;;;;;;21.70;27.70;;;;;;481901;247;1334;-73
2022/02/19 09:28:07;;;;;;;;;;;21.80;27.60;;;;;;481952;246;1149;-73
2022/02/19 09:30:08;;;;;;;;;;;21.70;27.50;;;;;;481917;247;2201;-74
2022/02/19 09:32:10;;;;;;;;;;;21.80;27.60;;;;;;482055;246;1226;-73
2022/02/19 09:34:11;;;;;;;;;;;21.80;27.50;;;;;;481855;247;1041;-73
2022/02/19 09:36:12;;;;;;;;;;;21.80;27.50;;;;;;481913;246;1253;-73
2022/02/19 09:38:13;;;;;;;;;;;21.80;27.40;;;;;;481822;247;1064;-73
2022/02/19 09:40:15;;;;;;;;;;;21.80;27.40;;;;;;481998;246;1427;-73
2022/02/19 09:42:16;;;;;;;;;;;21.80;27.40;;;;;;481913;247;1510;-73
2022/02/19 09:44:17;;;;;;;;;;;21.90;27.30;;;;;;481956;246;1061;-73
2022/02/19 09:46:19;;;;;;;;;;;21.90;27.20;;;;;;481787;247;1097;-74
2022/02/19 09:48:20;;;;;;;;;;;21.90;27.30;;;;;;481873;247;2133;-74
2022/02/19 09:50:21;;;;;;;;;;;21.90;27.20;;;;;;482091;246;990;-73
2022/02/19 09:52:24;;;;;;;;;;;21.80;27.20;;;;;;481882;247;1202;-73
2022/02/19 09:54:25;;;;;;;;;;;21.90;27.10;;;;;;481963;247;1182;-73
2022/02/19 09:56:28;;;;;;;;;;;22.00;27.00;;;;;;481988;246;1528;-73
2022/02/19 09:58:28;;;;;;;;;;;22.00;27.00;;;;;;481877;247;1505;-73
2022/02/19 10:00:29;;;;;;;;;;;22.00;26.90;;;;;;482277;246;1434;-73
2022/02/19 10:02:31;;;;;;;;;;;22.00;26.90;;;;;;481836;247;1159;-73
2022/02/19 10:04:32;;;;;;;;;;;22.00;26.90;;;;;;481967;246;1059;-73
2022/02/19 10:06:33;;;;;;;;;;;21.90;26.90;;;;;;481881;246;1188;-73
2022/02/19 10:08:35;;;;;;;;;;;22.00;26.90;;;;;;481912;247;2208;-73
2022/02/19 10:10:37;;;;;;;;;;;22.00;26.90;;;;;;481930;246;1235;-73
2022/02/19 10:12:37;;;;;;;;;;;22.00;26.80;;;;;;481840;246;1284;-73
2022/02/19 10:14:39;;;;;;;;;;;22.00;26.80;;;;;;481941;247;1122;-73
2022/02/19 10:16:41;;;;;;;;;;;21.90;26.80;;;;;;481871;246;1323;-73
2022/02/19 10:18:42;;;;;;;;;;;22.00;26.70;;;;;;481963;247;1019;-73
2022/02/19 10:20:43;;;;;;;;;;;22.10;26.70;;;;;;481991;246;1267;-73
2022/02/19 10:22:45;;;;;;;;;;;22.00;26.80;;;;;;481922;246;1169;-73
2022/02/19 10:24:46;;;;;;;;;;;22.00;26.80;;;;;;481942;247;1167;-73
2022/02/19 10:26:48;;;;;;;;;;;22.00;26.70;;;;;;482008;246;1145;-73
2022/02/19 10:28:49;;;;;;;;;;;22.10;26.70;;;;;;482023;246;2118;-73
2022/02/19 10:30:50;;;;;;;;;;;22.10;26.70;;;;;;482055;246;1120;-73
2022/02/19 10:32:52;;;;;;;;;;;22.00;26.70;;;;;;481872;247;1176;-74
2022/02/19 10:34:53;;;;;;;;;;;22.10;26.70;;;;;;482120;246;1079;-73
2022/02/19 10:36:54;;;;;;;;;;;22.10;26.70;;;;;;481874;247;1146;-73
2022/02/19 10:38:56;;;;;;;;;;;22.00;26.70;;;;;;482226;246;1062;-73
2022/02/19 10:40:57;;;;;;;;;;;22.00;26.70;;;;;;481958;247;1322;-73
2022/02/19 10:42:58;;;;;;;;;;;22.00;26.80;;;;;;481926;247;1102;-74
2022/02/19 10:45:00;;;;;;;;;;;22.00;26.70;;;;;;482057;246;1044;-73
2022/02/19 10:47:01;;;;;;;;;;;22.00;26.70;;;;;;482107;246;1103;-73
2022/02/19 10:49:02;;;;;;;;;;;22.00;26.80;;;;;;481952;247;2195;-73
2022/02/19 10:51:04;;;;;;;;;;;21.90;26.80;;;;;;482108;246;1217;-73
2022/02/19 10:53:05;;;;;;;;;;;22.00;26.80;;;;;;481906;247;1101;-73
2022/02/19 10:55:07;;;;;;;;;;;22.00;26.70;;;;;;482077;246;1215;-73
2022/02/19 10:57:08;;;;;;;;;;;22.10;26.60;;;;;;481839;246;1052;-73
2022/02/19 10:59:09;;;;;;;;;;;22.10;26.60;;;;;;481899;246;1077;-73
2022/02/19 11:01:11;;;;;;;;;;;22.10;26.60;;;;;;481972;246;1118;-74
2022/02/19 11:03:12;;;;;;;;;;;22.10;26.60;;;;;;482068;246;1079;-73
2022/02/19 11:05:13;;;;;;;;;;;22.00;26.60;;;;;;482132;246;1040;-73
2022/02/19 11:07:15;;;;;;;;;;;22.00;26.50;;;;;;481936;247;1207;-73
2022/02/19 11:09:16;;;;;;;;;;;22.00;26.50;;;;;;482069;246;2130;-73
2022/02/19 11:11:17;;;;;;;;;;;22.10;26.50;;;;;;490672;242;1219;-73
2022/02/19 11:13:19;;;;;;;;;;;22.10;26.50;;;;;;481951;247;1166;-73
2022/02/19 11:15:20;;;;;;;;;;;22.10;26.40;;;;;;482004;246;1060;-73
2022/02/19 11:17:21;;;;;;;;;;;22.10;26.40;;;;;;481869;246;1307;-73
2022/02/19 11:19:23;;;;;;;;;;;22.00;26.40;;;;;;481870;247;956;-73
2022/02/19 11:21:24;;;;;;;;;;;22.00;26.40;;;;;;481853;247;1210;-73
2022/02/19 11:23:25;;;;;;;;;;;22.10;26.40;;;;;;481903;247;990;-73
2022/02/19 11:25:27;;;;;;;;;;;22.10;26.40;;;;;;481935;247;1176;-73
2022/02/19 11:27:28;;;;;;;;;;;22.00;26.30;;;;;;481954;246;1088;-73
2022/02/19 11:29:29;;;;;;;;;;;22.10;26.40;;;;;;481964;247;2192;-73
2022/02/19 11:31:31;;;;;;;;;;;22.00;26.40;;;;;;481995;246;1170;-73
2022/02/19 11:33:32;;;;;;;;;;;22.10;26.40;;;;;;482232;246;1005;-73
2022/02/19 11:35:33;;;;;;;;;;;22.00;26.40;;;;;;482035;246;1263;-73
2022/02/19 11:37:35;;;;;;;;;;;22.10;26.40;;;;;;481914;247;1184;-73
2022/02/19 11:39:36;;;;;;;;;;;22.10;26.30;;;;;;482030;246;1122;-74
2022/02/19 11:41:40;;;;;;;;;;;22.10;26.20;;;;;;482084;246;1250;-73
2022/02/19 11:43:38;;;;;;;;;;;22.10;26.30;;;;;;481976;246;1494;-73
2022/02/19 11:45:40;;;;;;;;;;;22.10;26.30;;;;;;481987;246;1224;-73
2022/02/19 11:47:41;;;;;;;;;;;22.00;26.30;;;;;;482042;246;1225;-73
2022/02/19 11:49:42;;;;;;;;;;;22.00;26.30;;;;;;481976;246;2197;-73
2022/02/19 11:51:44;;;;;;;;;;;22.00;26.30;;;;;;481929;247;1203;-73
2022/02/19 11:53:45;;;;;;;;;;;22.00;26.20;;;;;;482016;246;1298;-73
2022/02/19 11:55:46;;;;;;;;;;;22.00;26.20;;;;;;481939;247;1256;-73
2022/02/19 11:57:48;;;;;;;;;;;22.00;26.20;;;;;;482007;246;1055;-73
2022/02/19 11:59:49;;;;;;;;;;;22.00;26.20;;;;;;481969;247;1109;-73
2022/02/19 12:01:50;;;;;;;;;;;22.10;26.10;;;;;;481855;247;1208;-73
2022/02/19 12:03:52;;;;;;;;;;;22.10;26.10;;;;;;473832;251;1066;-73
2022/02/19 12:05:53;;;;;;;;;;;22.10;26.00;;;;;;481951;246;1381;-73